Le Ponant — FGZZ — position and weather

sailwx.info

Track history (hours):
 
Tides and Currents Weather Stations Pressure Air Temp Water Temp Dewpoint Dewpoint Depression Visibility Wind Speed Wind Dir Waves Ship Positions

Le Ponant

Operator: Compangy des Iles du Ponant

Last reported at 2018-Apr-24 08:27 UTC. Time now 2018-Apr-25 02:38 UTC.
Position N 37°29' W 023°33'.

Length 84 m; draft 4.2 m.

Type: Passenger vessel. MMSI: 227186000.

Date/timePositionNaut miles runAvg speedWind from/ knotsBaromVisibWave heightAir tempDewpointWater temp
2018-Apr-24 08:27N 37°29' W 023°33'1911.6
2018-Apr-24 06:51N 37°32' W 023°56'411.3
2018-Apr-24 06:30N 37°32' W 024°01'611.4
2018-Apr-24 06:00N 37°33' W 024°08'611.4
2018-Apr-24 05:31N 37°33' W 024°15'611.3
2018-Apr-24 05:00N 37°34' W 024°22'611.3
2018-Apr-24 04:30N 37°34' W 024°29'611.5
2018-Apr-24 04:00N 37°35' W 024°37'611.2
2018-Apr-24 03:30N 37°36' W 024°44'611.4
2018-Apr-24 03:00N 37°37' W 024°51'611.5
2018-Apr-24 02:30N 37°37' W 024°58'611.6
2018-Apr-24 02:00N 37°38' W 025°05'611.8
2018-Apr-24 01:30N 37°38' W 025°13'611.3
2018-Apr-24 01:01N 37°39' W 025°20'611.2
2018-Apr-24 00:30N 37°40' W 025°27'511.0
2018-Apr-24 00:00N 37°41' W 025°33'510.5
2018-Apr-23 23:30N 37°44' W 025°39'1 1.1
2018-Apr-23 23:00N 37°44' W 025°40'0 0.0
2018-Apr-23 22:30N 37°44' W 025°40'0 0.0
2018-Apr-23 22:00N 37°44' W 025°40'0 0.0
2018-Apr-23 21:30N 37°44' W 025°40'0 0.0
2018-Apr-23 21:00N 37°44' W 025°40'0 0.0
2018-Apr-23 20:30N 37°44' W 025°40'2 3.2
2018-Apr-23 20:00N 37°43' W 025°39'3 6.9
2018-Apr-23 19:30N 37°42' W 025°43'4 7.4
2018-Apr-23 19:00N 37°40' W 025°47'510.0
2018-Apr-23 18:28N 37°38' W 025°53'811.1
2018-Apr-23 17:42N 37°34' W 026°03'11011.1
2018-Apr-23 07:46N 36°45' W 028°07'311.1
2018-Apr-23 07:30N 36°44' W 028°10'811.3
2018-Apr-23 06:47N 36°40' W 028°19'311.3
2018-Apr-23 06:31N 36°39' W 028°23'611.2
2018-Apr-23 06:00N 36°36' W 028°29'  
Track history (hours):
 
Tides and Currents Weather Stations Pressure Air Temp Water Temp Dewpoint Dewpoint Depression Visibility Wind Speed Wind Dir Waves Ship Positions

Le Ponant

Operator: Compangy des Iles du Ponant

Last reported at 2018-Apr-24 08:27 UTC. Time now 2018-Apr-25 02:38 UTC.
Position N 37°29' W 023°33'.

Length 84 m; draft 4.2 m.

Type: Passenger vessel. MMSI: 227186000.

Date/timePositionNaut miles runAvg speedWind from/ knotsBaromVisibWave heightAir tempDewpointWater temp
2018-Apr-24 08:27N 37°29' W 023°33'1911.6
2018-Apr-24 06:51N 37°32' W 023°56'411.3
2018-Apr-24 06:30N 37°32' W 024°01'611.4
2018-Apr-24 06:00N 37°33' W 024°08'611.4
2018-Apr-24 05:31N 37°33' W 024°15'611.3
2018-Apr-24 05:00N 37°34' W 024°22'611.3
2018-Apr-24 04:30N 37°34' W 024°29'611.5
2018-Apr-24 04:00N 37°35' W 024°37'611.2
2018-Apr-24 03:30N 37°36' W 024°44'611.4
2018-Apr-24 03:00N 37°37' W 024°51'611.5
2018-Apr-24 02:30N 37°37' W 024°58'611.6
2018-Apr-24 02:00N 37°38' W 025°05'611.8
2018-Apr-24 01:30N 37°38' W 025°13'611.3
2018-Apr-24 01:01N 37°39' W 025°20'611.2
2018-Apr-24 00:30N 37°40' W 025°27'511.0
2018-Apr-24 00:00N 37°41' W 025°33'510.5
2018-Apr-23 23:30N 37°44' W 025°39'1 1.1
2018-Apr-23 23:00N 37°44' W 025°40'0 0.0
2018-Apr-23 22:30N 37°44' W 025°40'0 0.0
2018-Apr-23 22:00N 37°44' W 025°40'0 0.0
2018-Apr-23 21:30N 37°44' W 025°40'0 0.0
2018-Apr-23 21:00N 37°44' W 025°40'0 0.0
2018-Apr-23 20:30N 37°44' W 025°40'2 3.2
2018-Apr-23 20:00N 37°43' W 025°39'3 6.9
2018-Apr-23 19:30N 37°42' W 025°43'4 7.4
2018-Apr-23 19:00N 37°40' W 025°47'510.0
2018-Apr-23 18:28N 37°38' W 025°53'811.1
2018-Apr-23 17:42N 37°34' W 026°03'11011.1
2018-Apr-23 07:46N 36°45' W 028°07'311.1
2018-Apr-23 07:30N 36°44' W 028°10'811.3
2018-Apr-23 06:47N 36°40' W 028°19'311.3
2018-Apr-23 06:31N 36°39' W 028°23'611.2
2018-Apr-23 06:00N 36°36' W 028°29'  

Dump ship's entire track history